Robin B Ingram — WDB9002 — position and weather

sailwx.info

Track history (hours):
 
Tides and Currents Weather Stations Pressure Air Temp Water Temp Dewpoint Dewpoint Depression Visibility Wind Speed Wind Dir Waves Ship Positions

Robin B Ingram

Owner: Ingram Barge Company LLC, Nashville, TN. More information available from US FCC via Universal Licensing System and Coast Guard Vessel Documentation Center.

Last reported at 2017-Aug-18 04:12 UTC. Time now 2017-Aug-21 02:32 UTC.
Position N 41°12' W 091°03'.

Length 39 m; draft 3 m.

Type: Towing. MMSI: 366967670.

Date/timePositionNaut miles runAvg speedWind from/ knotsBaromVisibWave heightAir tempDewpointWater temp
2017-Aug-18 04:12N 41°12' W 091°03'0 0.4
2017-Aug-18 03:59N 41°11' W 091°03'2 0.8
2017-Aug-18 01:20N 41°10' W 091°01'2 3.3
2017-Aug-18 00:47N 41°09' W 090°59'1 3.8
2017-Aug-18 00:25N 41°08' W 090°58'2 4.0
2017-Aug-18 00:00N 41°06' W 090°57'2 3.3
2017-Aug-17 23:30N 41°05' W 090°57'2 4.7
2017-Aug-17 23:00N 41°02' W 090°56'3 5.1
2017-Aug-17 22:30N 40°60' W 090°57'2 4.5
2017-Aug-17 22:00N 40°58' W 090°57'0 0.7
2017-Aug-17 21:30N 40°57' W 090°57'2 3.3
2017-Aug-17 21:00N 40°56' W 090°58'2 3.4
2017-Aug-17 20:30N 40°55' W 090°59'2 3.4
2017-Aug-17 20:00N 40°53' W 091°01'1 1.2
2017-Aug-17 19:30N 40°53' W 091°01'0 0.2
2017-Aug-17 19:00N 40°53' W 091°02'0 0.4
2017-Aug-17 18:30N 40°53' W 091°02'1 2.1
2017-Aug-17 18:00N 40°52' W 091°03'0 0.0
2017-Aug-17 17:30N 40°52' W 091°03'0 0.0
2017-Aug-17 17:00N 40°52' W 091°03'0 0.8
2017-Aug-17 16:30N 40°52' W 091°03'1 2.9
2017-Aug-17 16:00N 40°50' W 091°04'0 0.2
2017-Aug-17 15:30N 40°50' W 091°04'0 0.0
2017-Aug-17 15:00N 40°50' W 091°04'0 0.0
2017-Aug-17 14:30N 40°50' W 091°04'0 0.4
2017-Aug-17 14:00N 40°50' W 091°04'2 4.3
2017-Aug-17 13:30N 40°48' W 091°06'2 4.1
2017-Aug-17 13:00N 40°46' W 091°06'  
2017-Aug-08 15:00N 40°42' W 091°07'2 4.6
2017-Aug-08 14:29N 40°45' W 091°07'2 4.8
2017-Aug-08 14:00N 40°47' W 091°06'3 5.2
2017-Aug-08 13:30N 40°49' W 091°05'3 5.1
2017-Aug-08 13:00N 40°51' W 091°03'2 3.8
2017-Aug-08 12:29N 40°53' W 091°01'0 0.3
2017-Aug-08 12:00N 40°53' W 091°01'0 0.0
2017-Aug-08 11:30N 40°53' W 091°01'0 0.5
2017-Aug-08 11:00N 40°53' W 091°01'0 0.2
2017-Aug-08 10:30N 40°53' W 091°01'2 4.2
2017-Aug-08 10:00N 40°55' W 090°59'2 4.3
2017-Aug-08 09:30N 40°56' W 090°57'0 0.1
2017-Aug-08 09:00N 40°56' W 090°57'0 0.0
2017-Aug-08 08:30N 40°56' W 090°57'0 0.0
2017-Aug-08 08:00N 40°56' W 090°57'0 0.0
2017-Aug-08 07:30N 40°56' W 090°57'1 1.3
2017-Aug-08 07:00N 40°57' W 090°57'2 4.3
2017-Aug-08 06:30N 40°59' W 090°57'2 4.7
2017-Aug-08 06:00N 41°01' W 090°57'2 4.6
2017-Aug-08 05:30N 41°04' W 090°57'2 4.5
2017-Aug-08 05:00N 41°06' W 090°57'3 4.9
2017-Aug-08 04:26N 41°08' W 090°59'  
Track history (hours):
 
Tides and Currents Weather Stations Pressure Air Temp Water Temp Dewpoint Dewpoint Depression Visibility Wind Speed Wind Dir Waves Ship Positions

Robin B Ingram

Owner: Ingram Barge Company LLC, Nashville, TN. More information available from US FCC via Universal Licensing System and Coast Guard Vessel Documentation Center.

Last reported at 2017-Aug-18 04:12 UTC. Time now 2017-Aug-21 02:32 UTC.
Position N 41°12' W 091°03'.

Length 39 m; draft 3 m.

Type: Towing. MMSI: 366967670.

Date/timePositionNaut miles runAvg speedWind from/ knotsBaromVisibWave heightAir tempDewpointWater temp
2017-Aug-18 04:12N 41°12' W 091°03'0 0.4
2017-Aug-18 03:59N 41°11' W 091°03'2 0.8
2017-Aug-18 01:20N 41°10' W 091°01'2 3.3
2017-Aug-18 00:47N 41°09' W 090°59'1 3.8
2017-Aug-18 00:25N 41°08' W 090°58'2 4.0
2017-Aug-18 00:00N 41°06' W 090°57'2 3.3
2017-Aug-17 23:30N 41°05' W 090°57'2 4.7
2017-Aug-17 23:00N 41°02' W 090°56'3 5.1
2017-Aug-17 22:30N 40°60' W 090°57'2 4.5
2017-Aug-17 22:00N 40°58' W 090°57'0 0.7
2017-Aug-17 21:30N 40°57' W 090°57'2 3.3
2017-Aug-17 21:00N 40°56' W 090°58'2 3.4
2017-Aug-17 20:30N 40°55' W 090°59'2 3.4
2017-Aug-17 20:00N 40°53' W 091°01'1 1.2
2017-Aug-17 19:30N 40°53' W 091°01'0 0.2
2017-Aug-17 19:00N 40°53' W 091°02'0 0.4
2017-Aug-17 18:30N 40°53' W 091°02'1 2.1
2017-Aug-17 18:00N 40°52' W 091°03'0 0.0
2017-Aug-17 17:30N 40°52' W 091°03'0 0.0
2017-Aug-17 17:00N 40°52' W 091°03'0 0.8
2017-Aug-17 16:30N 40°52' W 091°03'1 2.9
2017-Aug-17 16:00N 40°50' W 091°04'0 0.2
2017-Aug-17 15:30N 40°50' W 091°04'0 0.0
2017-Aug-17 15:00N 40°50' W 091°04'0 0.0
2017-Aug-17 14:30N 40°50' W 091°04'0 0.4
2017-Aug-17 14:00N 40°50' W 091°04'2 4.3
2017-Aug-17 13:30N 40°48' W 091°06'2 4.1
2017-Aug-17 13:00N 40°46' W 091°06'  
2017-Aug-08 15:00N 40°42' W 091°07'2 4.6
2017-Aug-08 14:29N 40°45' W 091°07'2 4.8
2017-Aug-08 14:00N 40°47' W 091°06'3 5.2
2017-Aug-08 13:30N 40°49' W 091°05'3 5.1
2017-Aug-08 13:00N 40°51' W 091°03'2 3.8
2017-Aug-08 12:29N 40°53' W 091°01'0 0.3
2017-Aug-08 12:00N 40°53' W 091°01'0 0.0
2017-Aug-08 11:30N 40°53' W 091°01'0 0.5
2017-Aug-08 11:00N 40°53' W 091°01'0 0.2
2017-Aug-08 10:30N 40°53' W 091°01'2 4.2
2017-Aug-08 10:00N 40°55' W 090°59'2 4.3
2017-Aug-08 09:30N 40°56' W 090°57'0 0.1
2017-Aug-08 09:00N 40°56' W 090°57'0 0.0
2017-Aug-08 08:30N 40°56' W 090°57'0 0.0
2017-Aug-08 08:00N 40°56' W 090°57'0 0.0
2017-Aug-08 07:30N 40°56' W 090°57'1 1.3
2017-Aug-08 07:00N 40°57' W 090°57'2 4.3
2017-Aug-08 06:30N 40°59' W 090°57'2 4.7
2017-Aug-08 06:00N 41°01' W 090°57'2 4.6
2017-Aug-08 05:30N 41°04' W 090°57'2 4.5
2017-Aug-08 05:00N 41°06' W 090°57'3 4.9
2017-Aug-08 04:26N 41°08' W 090°59'  

Dump ship's entire track history